createdAt,value
2022-09-19T00:02:53.405Z,99602.69
2022-09-19T00:05:57.277Z,99603.00
2022-09-19T00:09:01.198Z,99602.69
2022-09-19T00:12:05.665Z,99607.28
2022-09-19T00:15:10.599Z,99599.03
2022-09-19T00:18:14.554Z,99612.53
2022-09-19T00:21:21.078Z,99603.31
2022-09-19T00:24:44.218Z,99611.09
2022-09-19T00:27:47.878Z,99612.22
2022-09-19T00:30:51.821Z,99616.97
2022-09-19T00:33:56.219Z,99609.34
2022-09-19T00:37:00.564Z,99621.66
2022-09-19T00:40:04.941Z,99624.84
2022-09-19T00:43:14.506Z,99626.69
2022-09-19T00:46:20.570Z,99615.22
2022-09-19T00:49:26.391Z,99629.59
2022-09-19T00:52:42.609Z,99620.28
2022-09-19T00:55:46.930Z,99624.84
2022-09-19T00:58:51.469Z,99634.63
2022-09-19T01:01:56.100Z,99632.59
2022-09-19T01:05:02.951Z,99636.53
2022-09-19T01:08:16.648Z,99642.41
2022-09-19T01:11:39.035Z,99647.28
2022-09-19T01:15:15.890Z,99644.41
2022-09-19T01:18:25.438Z,99654.69
2022-09-19T01:21:40.140Z,99651.19
2022-09-19T01:24:57.154Z,99658.66
2022-09-19T01:28:12.391Z,99666.25
2022-09-19T01:31:22.673Z,99666.25
2022-09-19T01:34:33.428Z,99666.56
2022-09-19T01:37:43.976Z,99677.31
2022-09-19T01:40:49.290Z,99679.53
2022-09-19T01:43:54.545Z,99685.88
2022-09-19T01:47:24.367Z,99687.75
2022-09-19T01:50:43.253Z,99701.72
2022-09-19T01:53:54.651Z,99702.31
2022-09-19T01:57:13.836Z,99708.81
2022-09-19T02:00:22.102Z,99711.16
2022-09-19T02:03:55.341Z,99713.69
2022-09-19T02:07:08.320Z,99719.38
2022-09-19T02:10:35.992Z,99727.94
2022-09-19T02:13:45.982Z,99722.06
2022-09-19T02:17:04.791Z,99731.78
2022-09-19T02:20:13.014Z,99736.00
2022-09-19T02:23:21.950Z,99741.22
2022-09-19T02:26:27.571Z,99738.53
2022-09-19T02:29:34.171Z,99745.34
2022-09-19T02:32:39.783Z,99741.88
2022-09-19T02:35:48.240Z,99748.31
2022-09-19T02:39:14.237Z,99751.97
2022-09-19T02:42:36.596Z,99755.44
2022-09-19T02:45:44.852Z,99758.75
2022-09-19T02:48:57.067Z,99765.56
2022-09-19T02:52:05.133Z,99768.75
2022-09-19T02:55:14.177Z,99760.34
2022-09-19T02:58:19.558Z,99763.19
2022-09-19T03:01:26.962Z,99762.75
2022-09-19T03:04:36.350Z,99767.81
2022-09-19T03:08:03.034Z,99775.22
2022-09-19T03:11:17.491Z,99775.06
2022-09-19T03:14:22.110Z,99772.22
2022-09-19T03:17:32.175Z,99772.53
2022-09-19T03:20:40.769Z,99786.13
2022-09-19T03:23:47.586Z,99784.09
2022-09-19T03:26:51.677Z,99799.13
2022-09-19T03:29:56.585Z,99791.69
2022-09-19T03:33:00.712Z,99797.22
2022-09-19T03:36:09.078Z,99806.53
2022-09-19T03:39:13.144Z,99800.34
2022-09-19T03:42:19.368Z,99813.66
2022-09-19T03:45:23.330Z,99820.75
2022-09-19T03:48:27.408Z,99823.28
2022-09-19T03:51:32.847Z,99818.22
2022-09-19T03:54:36.885Z,99823.28
2022-09-19T03:57:40.853Z,99823.75
2022-09-19T04:00:44.747Z,99828.84
2022-09-19T04:03:50.240Z,99829.94
2022-09-19T04:06:56.851Z,99825.66
2022-09-19T04:10:00.832Z,99831.69
2022-09-19T04:13:05.088Z,99832.47
2022-09-19T04:16:10.141Z,99831.66
2022-09-19T04:19:14.251Z,99835.63
2022-09-19T04:22:19.995Z,99840.84
2022-09-19T04:25:23.889Z,99841.50
2022-09-19T04:28:27.782Z,99833.25
2022-09-19T04:31:41.009Z,99839.25
2022-09-19T04:34:45.273Z,99844.16
2022-09-19T04:37:49.302Z,99847.19
2022-09-19T04:40:57.674Z,99854.47
2022-09-19T04:44:03.904Z,99846.88
2022-09-19T04:47:07.768Z,99855.28
2022-09-19T04:50:11.876Z,99863.63
2022-09-19T04:53:17.976Z,99870.31
2022-09-19T04:56:21.936Z,99861.47
2022-09-19T04:59:25.750Z,99878.25
2022-09-19T05:02:31.199Z,99867.31
2022-09-19T05:05:37.629Z,99875.38
2022-09-19T05:08:42.371Z,99879.19
2022-09-19T05:11:47.540Z,99880.16
2022-09-19T05:14:53.359Z,99882.84
2022-09-19T05:17:57.861Z,99894.69
2022-09-19T05:21:07.590Z,99907.53
2022-09-19T05:24:11.785Z,99908.94
2022-09-19T05:27:15.616Z,99913.06
2022-09-19T05:30:23.058Z,99912.44
2022-09-19T05:33:27.688Z,99918.59
2022-09-19T05:36:32.477Z,99922.22
2022-09-19T05:39:36.409Z,99928.09
2022-09-19T05:42:44.671Z,99922.22
2022-09-19T05:45:51.237Z,99925.38
2022-09-19T05:48:55.506Z,99921.22
2022-09-19T05:52:19.793Z,99924.09
2022-09-19T05:55:23.767Z,99923.16
2022-09-19T05:58:28.814Z,99931.69
2022-09-19T06:01:33.206Z,99941.97
2022-09-19T06:04:41.931Z,99957.31
2022-09-19T06:07:46.949Z,99949.34
2022-09-19T06:10:51.632Z,99965.50
2022-09-19T06:14:14.754Z,99970.22
2022-09-19T06:17:18.802Z,99982.41
2022-09-19T06:20:23.576Z,99977.97
2022-09-19T06:23:27.770Z,99985.41
2022-09-19T06:26:31.865Z,99984.75
2022-09-19T06:29:39.904Z,99999.28
2022-09-19T06:32:44.718Z,99997.22
2022-09-19T06:35:49.060Z,100002.63
2022-09-19T06:38:53.033Z,100001.97
2022-09-19T06:41:57.176Z,100005.75
2022-09-19T06:45:01.443Z,100001.13
2022-09-19T06:48:06.987Z,100013.81
2022-09-19T06:51:10.850Z,100004.91
2022-09-19T06:54:14.971Z,100019.19
2022-09-19T06:57:19.341Z,100019.78
2022-09-19T07:00:26.079Z,100029.09
2022-09-19T07:03:30.437Z,100031.00
2022-09-19T07:06:37.514Z,100048.91
2022-09-19T07:09:41.481Z,100046.84
2022-09-19T07:12:56.901Z,100052.25
2022-09-19T07:16:05.326Z,100053.97
2022-09-19T07:19:09.465Z,100050.19
2022-09-19T07:22:17.655Z,100058.25
2022-09-19T07:25:21.823Z,100061.41
2022-09-19T07:28:27.756Z,100072.69
2022-09-19T07:31:32.052Z,100079.69
2022-09-19T07:34:36.732Z,100081.50
2022-09-19T07:37:41.068Z,100085.41
2022-09-19T07:40:45.735Z,100093.00
2022-09-19T07:43:50.226Z,100098.06
2022-09-19T07:47:13.165Z,100098.69
2022-09-19T07:50:19.529Z,100117.56
2022-09-19T07:53:23.998Z,100116.19
2022-09-19T07:56:27.786Z,100115.66
2022-09-19T07:59:31.934Z,100126.31
2022-09-19T08:02:36.238Z,100125.19
2022-09-19T08:05:42.998Z,100132.00
2022-09-19T08:08:46.696Z,100132.91
2022-09-19T08:11:50.535Z,100146.41
2022-09-19T08:14:56.997Z,100142.41
2022-09-19T08:18:07.205Z,100147.81
2022-09-19T08:21:12.333Z,100146.88
2022-09-19T08:24:16.729Z,100141.41
2022-09-19T08:27:21.030Z,100142.97
2022-09-19T08:30:28.123Z,100154.88
2022-09-19T08:33:32.411Z,100151.53
2022-09-19T08:36:37.956Z,100156.56
2022-09-19T08:40:01.850Z,100158.56
2022-09-19T08:43:11.404Z,100149.47
2022-09-19T08:46:34.448Z,100160.50
2022-09-19T08:49:47.061Z,100157.97
2022-09-19T08:52:57.969Z,100173.44
2022-09-19T08:56:03.099Z,100175.84
2022-09-19T08:59:13.728Z,100179.91
2022-09-19T09:03:00.090Z,100186.94
2022-09-19T09:06:58.761Z,100189.38
2022-09-19T09:10:11.207Z,100192.63
2022-09-19T09:13:59.998Z,100196.78
2022-09-19T09:17:12.224Z,100190.00
2022-09-19T09:20:30.359Z,100189.88
2022-09-19T09:23:39.342Z,100199.28
2022-09-19T09:26:45.843Z,100197.53
2022-09-19T09:29:59.276Z,100191.13
2022-09-19T09:33:32.730Z,100204.75
2022-09-19T09:36:49.400Z,100202.50
2022-09-19T09:40:10.454Z,100213.38
2022-09-19T09:43:21.473Z,100222.88
2022-09-19T09:46:38.864Z,100239.50
2022-09-19T09:49:43.364Z,100235.88
2022-09-19T09:52:57.749Z,100227.84
2022-09-19T09:56:16.826Z,100226.44
2022-09-19T09:59:59.068Z,100210.38
2022-09-19T10:03:36.019Z,100213.97
2022-09-19T10:06:45.803Z,100209.41
2022-09-19T10:09:56.990Z,100222.84
2022-09-19T10:13:29.075Z,100225.63
2022-09-19T10:16:35.457Z,100221.97
2022-09-19T10:19:53.515Z,100223.84
2022-09-19T10:22:57.811Z,100219.94
2022-09-19T10:26:15.826Z,100229.47
2022-09-19T10:29:24.090Z,100227.94
2022-09-19T10:32:38.562Z,100228.53
2022-09-19T10:35:44.283Z,100232.75
2022-09-19T10:38:50.947Z,100233.66
2022-09-19T10:41:55.774Z,100229.41
2022-09-19T10:45:01.007Z,100238.69
2022-09-19T10:48:05.242Z,100232.03
2022-09-19T10:51:13.823Z,100233.47
2022-09-19T10:54:32.103Z,100227.63
2022-09-19T10:57:44.678Z,100236.06
2022-09-19T11:01:00.282Z,100239.41
2022-09-19T11:04:13.842Z,100221.13
2022-09-19T11:07:18.120Z,100216.78
2022-09-19T11:10:48.624Z,100228.47
2022-09-19T11:14:16.209Z,100215.66
2022-09-19T11:17:32.987Z,100215.25
2022-09-19T11:20:50.743Z,100216.38
2022-09-19T11:24:13.644Z,100214.00
2022-09-19T11:27:39.397Z,100216.38
2022-09-19T11:31:06.300Z,100200.69
2022-09-19T11:41:42.834Z,100208.66
2022-09-19T11:44:56.924Z,100222.94
2022-09-19T11:48:18.983Z,100208.06
2022-09-19T11:52:05.671Z,100198.84
2022-09-19T11:55:17.582Z,100199.06
2022-09-19T11:58:43.725Z,100204.56
2022-09-19T12:02:21.849Z,100210.06
2022-09-19T12:05:41.221Z,100201.78
2022-09-19T12:09:07.169Z,100199.97
2022-09-19T12:12:21.555Z,100190.56
2022-09-19T12:15:28.380Z,100196.47
2022-09-19T12:18:43.349Z,100196.69
2022-09-19T12:21:51.547Z,100196.47
2022-09-19T12:25:23.919Z,100195.69
2022-09-19T12:28:33.897Z,100193.69
2022-09-19T12:31:40.761Z,100205.47
2022-09-19T12:35:00.664Z,100208.03
2022-09-19T12:38:17.968Z,100205.97
2022-09-19T12:41:44.578Z,100196.97
2022-09-19T12:45:14.128Z,100191.72
2022-09-19T12:48:28.646Z,100191.19
2022-09-19T12:51:47.494Z,100182.47
2022-09-19T12:55:04.636Z,100176.19
2022-09-19T12:58:24.702Z,100175.41
2022-09-19T13:01:36.829Z,100174.03
2022-09-19T13:04:54.186Z,100168.25
2022-09-19T13:08:13.791Z,100176.31
2022-09-19T13:11:28.395Z,100176.84
2022-09-19T13:14:53.723Z,100179.31
2022-09-19T13:18:18.871Z,100182.41
2022-09-19T13:22:08.807Z,100190.25
2022-09-19T13:25:18.129Z,100192.91
2022-09-19T13:28:22.717Z,100185.88
2022-09-19T13:31:33.537Z,100192.69
2022-09-19T13:35:01.556Z,100198.78
2022-09-19T13:38:23.659Z,100194.88
2022-09-19T13:41:33.422Z,100205.69
2022-09-19T13:44:50.613Z,100201.19
2022-09-19T13:48:03.181Z,100208.28
2022-09-19T13:51:20.743Z,100207.16
2022-09-19T13:54:27.721Z,100215.56
2022-09-19T13:57:32.854Z,100211.47
2022-09-19T14:00:41.996Z,100214.50
2022-09-19T14:04:19.317Z,100213.06
2022-09-19T14:10:57.408Z,100224.16
2022-09-19T14:14:21.466Z,100225.22
2022-09-19T14:17:30.979Z,100227.59
2022-09-19T14:20:55.136Z,100222.13
2022-09-19T14:24:38.501Z,100233.94
2022-09-19T14:28:17.230Z,100229.84
2022-09-19T14:31:59.007Z,100223.91
2022-09-19T14:35:17.123Z,100224.91
2022-09-19T14:38:41.996Z,100225.28
2022-09-19T14:42:14.241Z,100226.63
2022-09-19T14:45:53.964Z,100217.72
2022-09-19T14:49:06.968Z,100228.25
2022-09-19T14:52:20.131Z,100223.13
2022-09-19T14:55:28.170Z,100224.03
2022-09-19T14:58:34.650Z,100234.63
2022-09-19T15:01:42.641Z,100224.16
2022-09-19T15:04:57.216Z,100223.09
2022-09-19T15:08:27.127Z,100221.75
2022-09-19T15:11:31.398Z,100213.19
2022-09-19T15:14:43.662Z,100222.28
2022-09-19T15:17:47.883Z,100226.31
2022-09-19T15:20:58.756Z,100236.50
2022-09-19T15:24:07.573Z,100261.22
2022-09-19T15:27:13.459Z,100259.94
2022-09-19T15:30:24.940Z,100265.53
2022-09-19T15:33:30.219Z,100285.50
2022-09-19T15:36:37.708Z,100305.75
2022-09-19T15:39:41.812Z,100315.88
2022-09-19T15:42:46.626Z,100321.44
2022-09-19T15:45:53.732Z,100327.00
2022-09-19T15:49:06.501Z,100318.34
2022-09-19T15:52:16.620Z,100323.03
2022-09-19T15:55:30.811Z,100317.22
2022-09-19T15:58:43.381Z,100318.97
2022-09-19T16:02:00.890Z,100316.75
2022-09-19T16:05:17.789Z,100322.03
2022-09-19T16:08:48.506Z,100328.78
2022-09-19T16:11:52.990Z,100332.97
2022-09-19T16:15:04.071Z,100319.13
2022-09-19T16:18:17.986Z,100324.25
2022-09-19T16:21:33.062Z,100320.56
2022-09-19T16:24:44.530Z,100320.91
2022-09-19T16:27:50.409Z,100332.78
2022-09-19T16:30:55.899Z,100325.75
2022-09-19T16:33:59.650Z,100334.03
2022-09-19T16:37:04.938Z,100339.09
2022-09-19T16:40:22.977Z,100339.31
2022-09-19T16:43:37.476Z,100341.94
2022-09-19T16:46:41.631Z,100345.50
2022-09-19T16:49:47.149Z,100355.47
2022-09-19T16:52:51.135Z,100362.94
2022-09-19T16:55:56.445Z,100359.31
2022-09-19T16:59:01.218Z,100356.47
2022-09-19T17:02:15.217Z,100358.38
2022-09-19T17:05:25.438Z,100360.44
2022-09-19T17:08:29.617Z,100365.03
2022-09-19T17:11:34.317Z,100370.56
2022-09-19T17:14:38.367Z,100369.34
2022-09-19T17:17:45.413Z,100367.72
2022-09-19T17:20:54.781Z,100360.91
2022-09-19T17:23:59.002Z,100356.50
2022-09-19T17:27:02.920Z,100373.34
2022-09-19T17:30:07.777Z,100364.44
2022-09-19T17:33:13.823Z,100358.75
2022-09-19T17:36:19.041Z,100375.47
2022-09-19T17:39:22.814Z,100367.66
2022-09-19T17:42:28.135Z,100371.47
2022-09-19T17:45:34.189Z,100375.09
2022-09-19T17:48:38.523Z,100366.69
2022-09-19T17:51:42.416Z,100370.50
2022-09-19T17:54:46.698Z,100369.06
2022-09-19T17:57:51.202Z,100376.53
2022-09-19T18:01:17.509Z,100379.53
2022-09-19T18:04:21.822Z,100378.94
2022-09-19T18:07:30.803Z,100380.81
2022-09-19T18:10:34.995Z,100381.94
2022-09-19T18:13:39.992Z,100394.63
2022-09-19T18:16:44.028Z,100395.13
2022-09-19T18:19:48.274Z,100393.41
2022-09-19T18:22:52.325Z,100404.19
2022-09-19T18:25:59.293Z,100400.06
2022-09-19T18:29:04.895Z,100396.56
2022-09-19T18:32:09.955Z,100403.53
2022-09-19T18:35:16.511Z,100404.00
2022-09-19T18:38:20.756Z,100404.66
2022-09-19T18:41:26.799Z,100408.16
2022-09-19T18:44:31.205Z,100417.34
2022-09-19T18:47:35.492Z,100409.22
2022-09-19T18:50:40.072Z,100416.72
2022-09-19T18:53:47.804Z,100420.16
2022-09-19T18:56:52.463Z,100416.72
2022-09-19T18:59:56.698Z,100417.47
2022-09-19T19:03:00.810Z,100425.59
2022-09-19T19:06:14.381Z,100426.53
2022-09-19T19:09:24.184Z,100434.78
2022-09-19T19:12:38.583Z,100442.22
2022-09-19T19:15:45.505Z,100438.06
2022-09-19T19:18:54.555Z,100430.47
2022-09-19T19:21:58.477Z,100429.69
2022-09-19T19:25:02.722Z,100430.28
2022-09-19T19:28:06.778Z,100426.81
2022-09-19T19:31:11.037Z,100429.97
2022-09-19T19:34:15.180Z,100424.63
2022-09-19T19:37:19.389Z,100425.09
2022-09-19T19:40:23.767Z,100428.13
2022-09-19T19:43:28.858Z,100433.34
2022-09-19T19:46:35.623Z,100440.19
2022-09-19T19:49:39.455Z,100442.72
2022-09-19T19:52:43.388Z,100432.56
2022-09-19T19:55:47.071Z,100437.63
2022-09-19T19:58:52.462Z,100433.50
2022-09-19T20:01:56.507Z,100433.19
2022-09-19T20:05:04.685Z,100436.34
2022-09-19T20:08:09.257Z,100437.28
2022-09-19T20:11:13.920Z,100442.88
2022-09-19T20:14:17.928Z,100434.31
2022-09-19T20:17:21.661Z,100446.34
2022-09-19T20:20:33.223Z,100443.47
2022-09-19T20:23:38.338Z,100440.00
2022-09-19T20:26:42.423Z,100446.00
2022-09-19T20:29:46.916Z,100442.34
2022-09-19T20:32:52.156Z,100434.56
2022-09-19T20:36:04.147Z,100443.75
2022-09-19T20:39:09.355Z,100442.66
2022-09-19T20:42:17.801Z,100438.88
2022-09-19T20:45:22.278Z,100447.91
2022-09-19T20:48:27.176Z,100440.59
2022-09-19T20:51:31.039Z,100455.38
2022-09-19T20:54:35.427Z,100459.84
2022-09-19T20:57:39.904Z,100451.25
2022-09-19T21:00:44.071Z,100458.56
2022-09-19T21:03:48.421Z,100451.25
2022-09-19T21:06:52.462Z,100451.13
2022-09-19T21:09:56.549Z,100453.81
2022-09-19T21:13:00.461Z,100449.03
2022-09-19T21:16:06.939Z,100466.66
2022-09-19T21:19:11.450Z,100456.50
2022-09-19T21:22:15.549Z,100467.63
2022-09-19T21:25:21.044Z,100464.59
2022-09-19T21:28:25.329Z,100471.56
2022-09-19T21:31:32.047Z,100472.41
2022-09-19T21:34:36.359Z,100473.63
2022-09-19T21:37:40.873Z,100479.50
2022-09-19T21:40:44.716Z,100473.44
2022-09-19T21:43:56.766Z,100479.84
2022-09-19T21:47:00.695Z,100479.84
2022-09-19T21:50:05.938Z,100478.22
2022-09-19T21:53:10.053Z,100476.81
2022-09-19T21:56:14.889Z,100479.34
2022-09-19T21:59:18.938Z,100490.31
2022-09-19T22:02:23.259Z,100484.59
2022-09-19T22:05:27.341Z,100492.81
2022-09-19T22:08:32.262Z,100490.13
2022-09-19T22:11:37.644Z,100490.59
2022-09-19T22:14:42.662Z,100484.59
2022-09-19T22:17:46.471Z,100493.59
2022-09-19T22:20:51.794Z,100487.75
2022-09-19T22:23:57.522Z,100487.44
2022-09-19T22:27:01.704Z,100482.53
2022-09-19T22:30:06.970Z,100484.25
2022-09-19T22:33:12.867Z,100487.44
2022-09-19T22:36:28.693Z,100489.81
2022-09-19T22:39:32.940Z,100489.00
2022-09-19T22:42:37.630Z,100489.81
2022-09-19T22:45:41.840Z,100493.16
2022-09-19T22:48:46.779Z,100494.88
2022-09-19T22:51:50.927Z,100483.94
2022-09-19T22:54:54.897Z,100489.31
2022-09-19T22:57:59.965Z,100497.06
2022-09-19T23:01:14.069Z,100492.47
2022-09-19T23:04:17.787Z,100495.63
2022-09-19T23:07:21.710Z,100485.47
2022-09-19T23:10:26.054Z,100489.91
2022-09-19T23:13:50.864Z,100493.69
2022-09-19T23:16:55.442Z,100488.94
2022-09-19T23:19:59.878Z,100493.25
2022-09-19T23:23:04.195Z,100480.81
2022-09-19T23:26:08.242Z,100490.97
2022-09-19T23:29:12.620Z,100491.75
2022-09-19T23:32:16.944Z,100499.31
2022-09-19T23:35:20.974Z,100492.66
2022-09-19T23:38:25.426Z,100500.44
2022-09-19T23:41:31.407Z,100498.97
2022-09-19T23:44:35.514Z,100499.94
2022-09-19T23:47:39.840Z,100505.50
2022-09-19T23:50:44.307Z,100505.66
2022-09-19T23:53:50.782Z,100515.47
2022-09-19T23:56:54.741Z,100510.41
2022-09-19T23:59:59.039Z,100515.91
